createdAt,value
2022-07-28T00:02:25.955Z,18.60
2022-07-28T00:04:53.033Z,18.70
2022-07-28T00:07:20.410Z,18.50
2022-07-28T00:09:47.444Z,18.50
2022-07-28T00:12:14.495Z,18.60
2022-07-28T00:14:41.495Z,18.50
2022-07-28T00:17:08.468Z,18.50
2022-07-28T00:19:35.419Z,18.60
2022-07-28T00:22:02.933Z,18.40
2022-07-28T00:24:31.875Z,18.40
2022-07-28T00:26:58.751Z,18.30
2022-07-28T00:29:26.107Z,18.40
2022-07-28T00:32:12.947Z,18.40
2022-07-28T00:34:40.280Z,18.40
2022-07-28T00:37:14.555Z,18.30
2022-07-28T00:39:41.962Z,18.30
2022-07-28T00:42:09.266Z,18.30
2022-07-28T00:44:36.711Z,18.20
2022-07-28T00:47:03.756Z,18.20
2022-07-28T00:49:30.607Z,18.30
2022-07-28T00:51:57.815Z,18.30
2022-07-28T00:54:24.808Z,18.40
2022-07-28T00:56:51.705Z,18.30
2022-07-28T00:59:18.576Z,18.20
2022-07-28T01:01:46.250Z,18.20
2022-07-28T01:04:13.413Z,18.20
2022-07-28T01:06:54.981Z,18.30
2022-07-28T01:09:56.558Z,18.30
2022-07-28T01:12:54.565Z,18.20
2022-07-28T01:15:29.149Z,18.20
2022-07-28T01:18:24.758Z,18.10
2022-07-28T01:20:55.053Z,18.10
2022-07-28T01:23:24.849Z,18.00
2022-07-28T01:26:21.053Z,17.90
2022-07-28T01:29:16.141Z,18.00
2022-07-28T01:31:57.124Z,18.00
2022-07-28T01:34:32.257Z,17.90
2022-07-28T01:37:07.621Z,17.90
2022-07-28T01:39:36.306Z,17.90
2022-07-28T01:42:06.258Z,17.80
2022-07-28T01:44:38.221Z,17.80
2022-07-28T01:47:07.793Z,17.80
2022-07-28T01:49:36.954Z,17.90
2022-07-28T01:52:08.375Z,17.80
2022-07-28T01:54:38.989Z,17.90
2022-07-28T01:57:09.264Z,17.80
2022-07-28T01:59:39.896Z,17.80
2022-07-28T02:02:08.989Z,17.80
2022-07-28T02:04:39.510Z,17.80
2022-07-28T02:07:08.438Z,17.80
2022-07-28T02:09:36.427Z,17.80
2022-07-28T02:12:04.721Z,17.70
2022-07-28T02:14:35.129Z,17.60
2022-07-28T02:17:10.168Z,17.70
2022-07-28T02:19:39.427Z,17.80
2022-07-28T02:22:08.328Z,17.60
2022-07-28T02:24:35.928Z,17.50
2022-07-28T02:27:27.029Z,17.50
2022-07-28T02:30:11.104Z,17.60
2022-07-28T02:32:47.458Z,17.40
2022-07-28T02:35:29.126Z,17.40
2022-07-28T02:38:06.599Z,17.40
2022-07-28T02:40:36.426Z,17.30
2022-07-28T02:43:05.198Z,17.30
2022-07-28T02:45:33.915Z,17.20
2022-07-28T02:48:06.209Z,17.20
2022-07-28T02:50:33.087Z,17.20
2022-07-28T02:53:15.103Z,17.10
2022-07-28T02:55:44.133Z,16.90
2022-07-28T02:58:12.646Z,16.90
2022-07-28T03:00:40.720Z,16.90
2022-07-28T03:03:09.876Z,16.90
2022-07-28T03:05:37.093Z,16.90
2022-07-28T03:08:04.788Z,17.10
2022-07-28T03:10:34.159Z,16.90
2022-07-28T03:13:02.964Z,16.90
2022-07-28T03:15:31.049Z,16.90
2022-07-28T03:17:58.618Z,16.80
2022-07-28T03:20:25.822Z,16.80
2022-07-28T03:22:52.950Z,16.70
2022-07-28T03:25:35.201Z,16.70
2022-07-28T03:28:06.188Z,16.70
2022-07-28T03:30:38.885Z,16.70
2022-07-28T03:33:06.448Z,16.70
2022-07-28T03:35:35.592Z,16.70
2022-07-28T03:38:08.737Z,16.80
2022-07-28T03:40:37.747Z,16.70
2022-07-28T03:43:08.252Z,16.60
2022-07-28T03:45:35.883Z,16.60
2022-07-28T03:48:03.894Z,16.70
2022-07-28T03:50:32.319Z,16.70
2022-07-28T03:53:02.880Z,16.60
2022-07-28T03:55:29.793Z,16.60
2022-07-28T03:57:57.804Z,16.70
2022-07-28T04:00:25.926Z,16.60
2022-07-28T04:02:53.010Z,16.60
2022-07-28T04:05:20.362Z,16.50
2022-07-28T04:07:47.467Z,16.50
2022-07-28T04:10:16.414Z,16.50
2022-07-28T04:12:56.731Z,16.50
2022-07-28T04:15:24.794Z,16.50
2022-07-28T04:17:52.949Z,16.40
2022-07-28T04:20:22.181Z,16.50
2022-07-28T04:22:50.440Z,16.40
2022-07-28T04:25:19.841Z,16.40
2022-07-28T04:27:46.889Z,16.40
2022-07-28T04:30:17.463Z,16.30
2022-07-28T04:32:49.434Z,16.40
2022-07-28T04:35:18.083Z,16.30
2022-07-28T04:37:46.338Z,16.30
2022-07-28T04:40:14.257Z,16.30
2022-07-28T04:42:41.749Z,16.30
2022-07-28T04:45:11.767Z,16.30
2022-07-28T04:47:39.210Z,16.40
2022-07-28T04:50:07.925Z,16.30
2022-07-28T04:52:35.287Z,16.40
2022-07-28T04:55:02.481Z,16.50
2022-07-28T04:57:30.123Z,16.50
2022-07-28T04:59:58.493Z,16.60
2022-07-28T05:02:25.331Z,16.70
2022-07-28T05:04:53.091Z,16.80
2022-07-28T05:07:20.313Z,16.90
2022-07-28T05:09:47.337Z,17.00
2022-07-28T05:12:14.341Z,17.10
2022-07-28T05:14:41.299Z,17.10
2022-07-28T05:17:09.805Z,17.30
2022-07-28T05:19:36.857Z,17.40
2022-07-28T05:22:06.915Z,17.50
2022-07-28T05:24:33.904Z,17.70
2022-07-28T05:27:00.978Z,17.80
2022-07-28T05:29:37.625Z,17.70
2022-07-28T05:32:16.746Z,17.70
2022-07-28T05:34:45.566Z,17.70
2022-07-28T05:37:12.527Z,17.70
2022-07-28T05:39:39.594Z,17.60
2022-07-28T05:42:06.728Z,17.70
2022-07-28T05:44:37.930Z,17.70
2022-07-28T05:47:06.180Z,17.80
2022-07-28T05:49:33.886Z,17.90
2022-07-28T05:52:00.799Z,18.10
2022-07-28T05:54:28.266Z,18.00
2022-07-28T05:56:55.088Z,18.00
2022-07-28T05:59:21.965Z,18.00
2022-07-28T06:01:48.893Z,18.10
2022-07-28T06:04:31.527Z,18.20
2022-07-28T06:06:58.673Z,18.20
2022-07-28T06:09:25.714Z,18.10
2022-07-28T06:11:52.576Z,18.10
2022-07-28T06:14:19.566Z,18.20
2022-07-28T06:16:51.111Z,18.20
2022-07-28T06:19:19.542Z,18.20
2022-07-28T06:21:47.580Z,18.20
2022-07-28T06:24:15.201Z,18.20
2022-07-28T06:26:44.953Z,18.30
2022-07-28T06:29:12.611Z,18.20
2022-07-28T06:31:39.618Z,18.20
2022-07-28T06:34:06.788Z,18.20
2022-07-28T06:36:34.440Z,18.20
2022-07-28T06:39:01.328Z,18.10
2022-07-28T06:41:28.845Z,18.10
2022-07-28T06:43:56.094Z,18.10
2022-07-28T06:46:23.509Z,18.30
2022-07-28T06:48:50.500Z,18.60
2022-07-28T06:51:21.919Z,18.70
2022-07-28T06:53:49.052Z,18.80
2022-07-28T06:56:16.953Z,18.80
2022-07-28T06:58:47.362Z,18.90
2022-07-28T07:01:17.671Z,19.00
2022-07-28T07:03:44.966Z,19.10
2022-07-28T07:06:12.190Z,19.00
2022-07-28T07:08:39.712Z,19.10
2022-07-28T07:11:06.982Z,19.40
2022-07-28T07:13:34.636Z,19.40
2022-07-28T07:16:05.052Z,19.60
2022-07-28T07:18:32.137Z,19.80
2022-07-28T07:20:59.001Z,19.90
2022-07-28T07:23:26.007Z,20.10
2022-07-28T07:25:53.058Z,20.30
2022-07-28T07:28:19.956Z,20.50
2022-07-28T07:30:46.865Z,20.40
2022-07-28T07:33:14.705Z,20.40
2022-07-28T07:35:41.527Z,20.40
2022-07-28T07:38:08.811Z,20.50
2022-07-28T07:40:35.835Z,20.50
2022-07-28T07:43:03.224Z,20.50
2022-07-28T07:45:30.196Z,20.60
2022-07-28T07:47:57.041Z,20.70
2022-07-28T07:50:25.139Z,20.90
2022-07-28T07:52:52.259Z,21.00
2022-07-28T07:55:19.210Z,21.10
2022-07-28T07:57:46.064Z,21.20
2022-07-28T08:00:28.801Z,21.30
2022-07-28T08:02:57.473Z,21.50
2022-07-28T08:05:35.016Z,21.70
2022-07-28T08:08:04.894Z,21.80
2022-07-28T08:10:32.135Z,22.00
2022-07-28T08:12:59.104Z,22.10
2022-07-28T08:15:26.179Z,22.10
2022-07-28T08:17:53.327Z,22.10
2022-07-28T08:20:20.405Z,22.20
2022-07-28T08:22:55.225Z,22.20
2022-07-28T08:25:23.288Z,22.30
2022-07-28T08:27:50.903Z,22.60
2022-07-28T08:30:22.590Z,23.00
2022-07-28T08:32:56.359Z,23.10
2022-07-28T08:35:35.806Z,23.20
2022-07-28T08:38:04.758Z,23.20
2022-07-28T08:40:32.722Z,23.30
2022-07-28T08:43:18.480Z,23.60
2022-07-28T08:45:50.140Z,23.90
2022-07-28T08:48:23.359Z,24.20
2022-07-28T08:50:51.830Z,24.60
2022-07-28T08:53:21.012Z,24.80
2022-07-28T08:55:49.852Z,25.00
2022-07-28T08:58:17.759Z,25.10
2022-07-28T09:00:44.955Z,25.10
2022-07-28T09:03:13.202Z,25.30
2022-07-28T09:05:44.133Z,25.10
2022-07-28T09:08:12.626Z,25.00
2022-07-28T09:10:39.666Z,25.00
2022-07-28T09:13:06.658Z,25.00
2022-07-28T09:15:34.686Z,25.10
2022-07-28T09:18:02.227Z,25.20
2022-07-28T09:20:29.755Z,25.00
2022-07-28T09:23:02.194Z,25.30
2022-07-28T09:25:31.261Z,25.50
2022-07-28T09:28:11.347Z,25.50
2022-07-28T09:30:52.479Z,25.70
2022-07-28T09:33:43.221Z,25.60
2022-07-28T09:36:16.098Z,25.60
2022-07-28T09:38:43.656Z,25.60
2022-07-28T09:41:11.262Z,25.50
2022-07-28T09:43:44.104Z,25.20
2022-07-28T09:46:23.734Z,25.10
2022-07-28T09:48:51.341Z,24.90
2022-07-28T09:51:24.509Z,24.60
2022-07-28T09:53:52.250Z,24.70
2022-07-28T09:56:19.387Z,24.60
2022-07-28T09:58:58.200Z,24.40
2022-07-28T10:01:27.448Z,24.40
2022-07-28T10:04:02.912Z,24.40
2022-07-28T10:06:32.470Z,24.40
2022-07-28T10:09:01.822Z,24.40
2022-07-28T10:11:30.434Z,24.10
2022-07-28T10:14:04.441Z,24.20
2022-07-28T10:16:34.222Z,24.00
2022-07-28T10:19:03.998Z,24.20
2022-07-28T10:21:34.649Z,24.10
2022-07-28T10:24:15.266Z,24.20
2022-07-28T10:26:45.024Z,24.20
2022-07-28T10:29:18.484Z,24.00
2022-07-28T10:31:53.072Z,24.10
2022-07-28T10:34:31.082Z,24.10
2022-07-28T10:37:05.097Z,24.10
2022-07-28T10:39:41.664Z,24.20
2022-07-28T10:42:12.592Z,24.10
2022-07-28T10:44:41.707Z,24.30
2022-07-28T10:47:18.390Z,24.30
2022-07-28T10:49:48.548Z,24.40
2022-07-28T10:55:32.107Z,24.70
2022-07-28T10:58:15.311Z,25.00
2022-07-28T11:00:56.833Z,25.10
2022-07-28T11:03:40.759Z,25.10
2022-07-28T11:06:30.131Z,25.20
2022-07-28T11:09:20.218Z,25.40
2022-07-28T11:11:50.262Z,25.60
2022-07-28T11:14:24.472Z,25.80
2022-07-28T11:17:00.734Z,25.90
2022-07-28T11:19:40.608Z,25.80
2022-07-28T11:22:18.386Z,26.00
2022-07-28T11:24:57.990Z,26.30
2022-07-28T11:27:40.847Z,26.50
2022-07-28T11:30:33.597Z,27.10
2022-07-28T11:33:02.107Z,27.40
2022-07-28T11:35:53.347Z,27.50
2022-07-28T11:38:20.739Z,27.40
2022-07-28T11:40:50.058Z,27.80
2022-07-28T11:43:37.841Z,28.20
2022-07-28T11:46:10.330Z,28.50
2022-07-28T11:48:40.048Z,27.90
2022-07-28T11:51:07.191Z,28.10
2022-07-28T11:53:48.758Z,28.50
2022-07-28T11:56:37.838Z,29.00
2022-07-28T11:59:06.717Z,29.30
2022-07-28T12:01:36.964Z,29.50
2022-07-28T12:04:16.282Z,29.50
2022-07-28T12:06:51.229Z,29.70
2022-07-28T12:09:23.461Z,29.90
2022-07-28T12:11:55.421Z,29.80
2022-07-28T12:14:35.957Z,29.50
2022-07-28T12:17:05.701Z,29.50
2022-07-28T12:19:33.265Z,29.50
2022-07-28T12:22:00.442Z,29.50
2022-07-28T12:24:29.991Z,29.20
2022-07-28T12:26:58.078Z,29.10
2022-07-28T12:29:35.486Z,28.80
2022-07-28T12:32:10.224Z,28.80
2022-07-28T12:34:39.963Z,28.70
2022-07-28T12:37:11.243Z,28.60
2022-07-28T12:39:42.864Z,28.40
2022-07-28T12:42:12.542Z,28.50
2022-07-28T12:44:42.247Z,28.40
2022-07-28T12:47:12.611Z,28.40
2022-07-28T12:49:42.900Z,28.30
2022-07-28T12:52:22.477Z,28.40
2022-07-28T12:54:55.610Z,28.40
2022-07-28T12:57:59.351Z,28.50
2022-07-28T13:00:29.189Z,28.40
2022-07-28T13:02:58.190Z,28.20
2022-07-28T13:05:29.888Z,27.90
2022-07-28T13:08:02.174Z,28.00
2022-07-28T13:10:30.320Z,28.40
2022-07-28T13:13:03.375Z,28.70
2022-07-28T13:15:30.558Z,28.70
2022-07-28T13:17:58.018Z,28.70
2022-07-28T13:20:25.500Z,28.80
2022-07-28T13:22:53.683Z,28.70
2022-07-28T13:25:21.263Z,29.10
2022-07-28T13:27:52.462Z,29.30
2022-07-28T13:30:21.605Z,29.20
2022-07-28T13:32:49.800Z,28.80
2022-07-28T13:35:19.157Z,29.00
2022-07-28T13:37:48.244Z,29.60
2022-07-28T13:40:15.263Z,29.90
2022-07-28T13:42:52.813Z,30.10
2022-07-28T13:45:25.044Z,30.20
2022-07-28T13:47:57.018Z,30.20
2022-07-28T13:50:24.219Z,30.20
2022-07-28T13:52:51.072Z,30.30
2022-07-28T13:55:19.799Z,30.10
2022-07-28T13:57:49.822Z,30.20
2022-07-28T14:00:18.729Z,30.30
2022-07-28T14:02:48.855Z,30.50
2022-07-28T14:05:16.411Z,30.70
2022-07-28T14:07:48.523Z,31.40
2022-07-28T14:10:19.240Z,31.60
2022-07-28T14:12:46.617Z,31.80
2022-07-28T14:15:14.354Z,32.20
2022-07-28T14:17:42.674Z,31.90
2022-07-28T14:20:13.051Z,31.90
2022-07-28T14:22:40.236Z,31.80
2022-07-28T14:25:07.393Z,31.20
2022-07-28T14:27:34.443Z,30.90
2022-07-28T14:30:03.820Z,30.60
2022-07-28T14:32:31.969Z,30.30
2022-07-28T14:34:58.941Z,30.00
2022-07-28T14:37:27.177Z,30.10
2022-07-28T14:39:54.020Z,30.50
2022-07-28T14:42:20.881Z,30.30
2022-07-28T14:44:47.809Z,30.70
2022-07-28T14:47:15.666Z,31.20
2022-07-28T14:49:57.186Z,31.10
2022-07-28T14:52:26.777Z,30.60
2022-07-28T14:54:54.511Z,31.00
2022-07-28T14:57:46.875Z,31.30
2022-07-28T15:00:11.136Z,31.70
2022-07-28T15:02:39.774Z,31.90
2022-07-28T15:05:07.925Z,32.00
2022-07-28T15:07:35.684Z,31.90
2022-07-28T15:10:04.487Z,31.80
2022-07-28T15:12:31.528Z,31.80
2022-07-28T15:14:58.373Z,31.90
2022-07-28T15:17:25.197Z,31.70
2022-07-28T15:19:53.350Z,31.00
2022-07-28T15:22:20.541Z,30.70
2022-07-28T15:24:53.374Z,30.80
2022-07-28T15:27:22.196Z,30.60
2022-07-28T15:29:52.163Z,30.50
2022-07-28T15:32:27.226Z,30.40
2022-07-28T15:34:55.771Z,30.20
2022-07-28T15:37:23.148Z,30.20
2022-07-28T15:39:50.224Z,30.20
2022-07-28T15:42:17.357Z,30.30
2022-07-28T15:44:45.873Z,30.10
2022-07-28T15:47:12.891Z,30.10
2022-07-28T15:49:39.944Z,30.10
2022-07-28T15:52:06.834Z,29.90
2022-07-28T15:54:33.662Z,30.00
2022-07-28T15:57:00.519Z,30.10
2022-07-28T15:59:50.039Z,30.00
2022-07-28T16:02:17.652Z,29.90
2022-07-28T16:04:52.227Z,29.70
2022-07-28T16:07:23.622Z,29.60
2022-07-28T16:09:52.127Z,29.60
2022-07-28T16:12:19.282Z,29.70
2022-07-28T16:14:46.436Z,29.80
2022-07-28T16:17:13.486Z,30.20
2022-07-28T16:19:49.965Z,30.40
2022-07-28T16:22:19.033Z,30.60
2022-07-28T16:24:46.708Z,30.80
2022-07-28T16:27:14.842Z,30.90
2022-07-28T16:29:42.654Z,31.00
2022-07-28T16:32:09.713Z,30.50
2022-07-28T16:34:37.044Z,30.30
2022-07-28T16:37:05.779Z,30.30
2022-07-28T16:39:34.004Z,30.40
2022-07-28T16:42:01.435Z,30.30
2022-07-28T16:44:29.437Z,30.20
2022-07-28T16:46:57.034Z,29.80
2022-07-28T16:49:24.852Z,29.90
2022-07-28T16:51:51.884Z,29.90
2022-07-28T16:54:19.481Z,30.00
2022-07-28T16:56:47.013Z,30.00
2022-07-28T16:59:14.187Z,30.20
2022-07-28T17:01:45.951Z,30.20
2022-07-28T17:04:15.503Z,29.80
2022-07-28T17:06:45.323Z,29.30
2022-07-28T17:09:15.878Z,29.00
2022-07-28T17:11:46.283Z,29.00
2022-07-28T17:14:13.436Z,28.90
2022-07-28T17:16:40.613Z,28.70
2022-07-28T17:19:07.693Z,28.80
2022-07-28T17:21:38.843Z,28.70
2022-07-28T17:24:07.588Z,28.20
2022-07-28T17:29:22.245Z,28.30
2022-07-28T17:31:50.242Z,28.00
2022-07-28T17:34:17.808Z,27.70
2022-07-28T17:36:48.405Z,27.70
2022-07-28T17:39:16.636Z,27.70
2022-07-28T17:41:43.666Z,27.60
2022-07-28T17:44:10.568Z,27.60
2022-07-28T17:46:38.045Z,27.60
2022-07-28T17:49:06.421Z,27.50
2022-07-28T17:51:33.551Z,27.40
2022-07-28T17:54:00.705Z,27.40
2022-07-28T17:56:27.835Z,27.30
2022-07-28T17:58:55.634Z,27.10
2022-07-28T18:01:22.451Z,27.00
2022-07-28T18:03:57.692Z,26.90
2022-07-28T18:06:29.537Z,26.90
2022-07-28T18:08:57.559Z,26.90
2022-07-28T18:11:30.138Z,26.70
2022-07-28T18:14:04.395Z,26.60
2022-07-28T18:16:34.375Z,26.60
2022-07-28T18:19:04.877Z,26.60
2022-07-28T18:21:32.203Z,26.60
2022-07-28T18:24:02.103Z,26.60
2022-07-28T18:26:29.125Z,26.40
2022-07-28T18:28:55.995Z,26.50
2022-07-28T18:31:22.912Z,26.40
2022-07-28T18:33:50.008Z,26.20
2022-07-28T18:36:16.992Z,26.20
2022-07-28T18:38:43.979Z,26.30
2022-07-28T18:41:10.890Z,26.20
2022-07-28T18:43:38.096Z,26.20
2022-07-28T18:46:05.386Z,26.00
2022-07-28T18:48:32.269Z,25.80
2022-07-28T18:50:59.341Z,25.80
2022-07-28T18:53:26.837Z,25.70
2022-07-28T18:55:53.947Z,25.60
2022-07-28T18:58:20.901Z,25.50
2022-07-28T19:00:48.046Z,25.50
2022-07-28T19:03:14.875Z,25.50
2022-07-28T19:05:45.777Z,25.40
2022-07-28T19:08:13.456Z,25.50
2022-07-28T19:10:40.632Z,25.40
2022-07-28T19:13:09.301Z,25.40
2022-07-28T19:15:40.736Z,25.10
2022-07-28T19:18:10.229Z,25.10
2022-07-28T19:20:40.153Z,25.10
2022-07-28T19:23:07.339Z,25.10
2022-07-28T19:25:36.379Z,25.00
2022-07-28T19:28:04.590Z,24.90
2022-07-28T19:30:32.410Z,24.80
2022-07-28T19:32:59.874Z,24.60
2022-07-28T19:35:26.806Z,24.70
2022-07-28T19:37:55.475Z,24.70
2022-07-28T19:40:25.175Z,24.70
2022-07-28T19:42:53.606Z,24.70
2022-07-28T19:45:20.682Z,24.60
2022-07-28T19:47:49.764Z,24.40
2022-07-28T19:50:17.311Z,24.30
2022-07-28T19:52:44.421Z,24.20
2022-07-28T19:55:12.818Z,24.10
2022-07-28T19:57:45.492Z,24.00
2022-07-28T20:00:13.970Z,24.10
2022-07-28T20:02:41.060Z,24.00
2022-07-28T20:05:09.007Z,24.00
2022-07-28T20:07:36.415Z,24.00
2022-07-28T20:10:03.987Z,24.00
2022-07-28T20:12:36.162Z,23.90
2022-07-28T20:15:05.757Z,23.90
2022-07-28T20:17:40.188Z,23.90
2022-07-28T20:20:13.811Z,24.00
2022-07-28T20:22:41.829Z,23.80
2022-07-28T20:25:10.402Z,23.70
2022-07-28T20:27:40.444Z,23.50
2022-07-28T20:30:12.755Z,23.50
2022-07-28T20:32:40.538Z,23.50
2022-07-28T20:35:10.050Z,23.50
2022-07-28T20:37:38.044Z,23.40
2022-07-28T20:40:06.941Z,23.20
2022-07-28T20:42:34.081Z,23.20
2022-07-28T20:45:01.072Z,23.40
2022-07-28T20:47:28.225Z,23.30
2022-07-28T20:49:55.638Z,23.40
2022-07-28T20:52:23.544Z,23.40
2022-07-28T20:54:54.233Z,23.20
2022-07-28T20:57:21.953Z,23.10
2022-07-28T20:59:51.299Z,23.20
2022-07-28T21:02:23.208Z,23.20
2022-07-28T21:04:50.874Z,23.30
2022-07-28T21:07:59.556Z,23.40
2022-07-28T21:10:07.212Z,23.40
2022-07-28T21:12:35.057Z,23.40
2022-07-28T21:15:02.230Z,23.10
2022-07-28T21:17:29.243Z,23.00
2022-07-28T21:19:56.283Z,22.90
2022-07-28T21:22:23.490Z,22.80
2022-07-28T21:24:55.301Z,22.80
2022-07-28T21:27:23.469Z,22.90
2022-07-28T21:32:18.002Z,22.80
2022-07-28T21:34:44.912Z,22.60
2022-07-28T21:37:13.094Z,22.70
2022-07-28T21:39:40.542Z,22.70
2022-07-28T21:42:08.726Z,22.50
2022-07-28T21:44:37.273Z,22.50
2022-07-28T21:47:04.821Z,22.50
2022-07-28T21:49:32.503Z,22.50
2022-07-28T21:51:59.723Z,22.50
2022-07-28T21:54:26.884Z,22.50
2022-07-28T21:56:54.006Z,22.50
2022-07-28T21:59:20.837Z,22.40
2022-07-28T22:01:47.911Z,22.40
2022-07-28T22:04:15.281Z,22.30
2022-07-28T22:06:46.070Z,22.20
2022-07-28T22:09:14.469Z,22.30
2022-07-28T22:11:41.902Z,22.30
2022-07-28T22:14:08.845Z,22.40
2022-07-28T22:16:35.968Z,22.30
2022-07-28T22:19:03.831Z,22.20
2022-07-28T22:21:30.917Z,22.20
2022-07-28T22:23:57.762Z,22.10
2022-07-28T22:26:24.816Z,22.20
2022-07-28T22:28:51.854Z,22.20
2022-07-28T22:31:18.840Z,22.00
2022-07-28T22:33:45.949Z,21.90
2022-07-28T22:36:12.784Z,21.90
2022-07-28T22:38:39.600Z,21.90
2022-07-28T22:41:06.462Z,21.90
2022-07-28T22:43:33.932Z,21.90
2022-07-28T22:46:01.634Z,21.90
2022-07-28T22:48:28.882Z,22.00
2022-07-28T22:50:56.316Z,21.90
2022-07-28T22:53:23.427Z,21.80
2022-07-28T22:58:34.460Z,21.80
2022-07-28T23:01:01.843Z,21.80
2022-07-28T23:03:30.560Z,21.90
2022-07-28T23:05:59.081Z,21.80
2022-07-28T23:08:26.947Z,21.70
2022-07-28T23:10:57.303Z,21.70
2022-07-28T23:13:24.562Z,21.70
2022-07-28T23:15:51.562Z,21.50
2022-07-28T23:18:18.621Z,21.60
2022-07-28T23:20:45.703Z,21.60
2022-07-28T23:23:14.914Z,21.40
2022-07-28T23:25:42.992Z,21.50
2022-07-28T23:28:10.437Z,21.40
2022-07-28T23:30:38.097Z,21.30
2022-07-28T23:33:05.795Z,21.30
2022-07-28T23:35:33.566Z,21.30
2022-07-28T23:38:00.450Z,21.20
2022-07-28T23:40:27.639Z,21.30
2022-07-28T23:42:54.587Z,21.10
2022-07-28T23:45:21.964Z,21.00
2022-07-28T23:47:48.812Z,21.00
2022-07-28T23:50:15.729Z,20.90
2022-07-28T23:52:42.711Z,20.80
2022-07-28T23:55:09.909Z,20.70
2022-07-28T23:57:37.044Z,20.80
